• Join FlightAware (Why Join?)
  • Login
  • US Flag 
04:16PM EDT


 

Airport Tracker/Info


-or-


 

Live Flight TrackerFlight Track Log ✈ N566UA ✈ 06-Apr-2013 ✈ KIAD - KTPA

Flight Track Log - Related Links

Times and Time Zones

All times are in EDT time to prevent confusion due to time zone crossing. See the N566UA flight status page for this flight to view local times or setup timezone preferences in your user account.

Time Position Orientation Groundspeed Altitude Reporting Facility
EDT Latitude Longitude Course Direction KTS MPH feet Rate Location/Type
10:55PM 38.9500 -77.5000 270° West 177 204 1,700  Level Potomac TRACON
10:56PM 38.9167 -77.5667 237° Southwest 212 244 4,800 3,300 Climbing Potomac TRACON
10:57PM 38.7332 -77.5739 180° South  Level Estimated
10:57PM 38.8500 -77.5833 191° South 260 299 8,300  Level Potomac TRACON
10:58PM 38.6261 -77.6306 190° South  Level Estimated
10:58PM 38.7667 -77.6167 197° South 290 334 11,700  Level Potomac TRACON
10:59PM 38.5190 -77.6871 185° South  Level Estimated
10:59PM 38.7036 -77.6694 213° Southwest 332 382 13,800  Level Washington Center
11:00PM 38.4118 -77.7435 270° West  Level Estimated
11:00PM 38.6128 -77.7358 210° Southwest 372 428 16,500  Level Washington Center
11:01PM 38.5200 -77.7994 208° Southwest 384 442 19,000 2,520 Climbing Washington Center
11:02PM 38.4206 -77.8708 209° Southwest 396 456 21,600 2,460 Climbing Washington Center
11:03PM 38.3192 -77.9417 209° Southwest 407 468 24,000 2,160 Climbing Washington Center
11:04PM 38.2156 -78.0125 208° Southwest 415 478 26,000 1,800 Climbing Washington Center
11:05PM 38.1289 -78.0706 208° Southwest 428 493 27,600 1,620 Climbing Washington Center
11:06PM 38.0103 -78.1586 210° Southwest 446 513 29,300 2,220 Climbing Washington Center
11:07PM 37.9036 -78.2631 218° Southwest 446 513 32,100 2,400 Climbing Washington Center
11:08PM 37.8100 -78.3517 217° Southwest 440 506 34,100 1,800 Climbing Washington Center
11:09PM 37.7267 -78.4300 217° Southwest 433 498 35,800 900 Climbing Washington Center
11:10PM 37.6328 -78.5158 216° Southwest 428 493 36,000 60 Climbing Washington Center
11:11PM 37.5292 -78.5797 206° Southwest 421 484 36,000  Level Washington Center
11:12PM 37.4192 -78.6356 202° Southwest 421 484 36,000  Level Washington Center
11:13PM 37.2967 -78.6986 202° Southwest 426 490 36,000  Level Washington Center
11:14PM 37.1889 -78.7542 202° Southwest 426 490 36,000  Level Washington Center
11:15PM 37.0789 -78.8122 203° Southwest 426 490 36,000  Level Washington Center
11:16PM 36.9708 -78.8700 203° Southwest 426 490 36,000  Level Washington Center
11:17PM 36.8608 -78.9225 201° Southwest 426 490 36,000  Level Washington Center
11:18PM 36.7614 -78.9753 203° Southwest 426 490 36,000  Level Washington Center
11:19PM 36.6553 -79.0381 205° Southwest 421 484 36,000  Level Washington Center
11:20PM 36.5472 -79.0928 202° Southwest 421 484 36,000  Level Washington Center
11:21PM 36.4331 -79.1444 200° South 426 490 36,000  Level Washington Center
11:22PM 36.3269 -79.2067 205° Southwest 426 490 36,000  Level Washington Center
11:23PM 36.2189 -79.2608 202° Southwest 421 484 36,000  Level Washington Center
11:24PM 36.1047 -79.3069 198° South 421 484 36,000  Level Washington Center
11:25PM 35.9928 -79.3531 198° South 426 490 36,000  Level Washington Center
11:26PM 35.8783 -79.4064 201° Southwest 431 496 36,000  Level Washington Center
11:27PM 35.7578 -79.4569 199° South 421 484 36,000  Level Washington Center
11:28PM 35.6478 -79.5053 200° South 426 490 36,000  Level Washington Center
11:29PM 35.5417 -79.5511 199° South 437 503 36,000  Level Washington Center
11:30PM 35.4275 -79.5992 199° South 437 503 36,000  Level Washington Center
11:31PM 35.3153 -79.6469 199° South 432 497 36,000  Level Washington Center
11:32PM 35.2031 -79.6947 199° South 432 497 36,000  Level Washington Center
11:34PM 34.9606 -79.8000 200° South 421 484 36,000  Level Jacksonville Center
11:35PM 34.8469 -79.8469 199° South 421 484 36,000  Level Jacksonville Center
11:36PM 34.7353 -79.8939 199° South 421 484 36,000  Level Jacksonville Center
11:37PM 34.6239 -79.9433 200° South 421 484 36,000  Level Jacksonville Center
11:38PM 34.5267 -79.9817 198° South 415 478 36,000 -60 Level Jacksonville Center
11:39PM 34.4153 -80.0308 200° South 415 478 35,900  Descending Jacksonville Center
11:40PM 34.2994 -80.0800 199° South 422 486 36,000  Climbing Jacksonville Center
11:41PM 34.1858 -80.1236 198° South 428 493 36,000  Level Jacksonville Center
11:42PM 34.0719 -80.1725 200° South 433 498 36,000 -60 Level Jacksonville Center
11:43PM 33.9603 -80.2186 199° South 433 498 35,900  Descending Jacksonville Center
11:44PM 33.8486 -80.2669 200° South 433 498 36,000  Climbing Jacksonville Center
11:45PM 33.7350 -80.3128 199° South 433 498 36,000  Level Jacksonville Center
11:46PM 33.6231 -80.3583 199° South 433 498 36,000  Level Jacksonville Center
11:47PM 33.5094 -80.4064 199° South 433 498 36,000  Level Jacksonville Center
11:48PM 33.3956 -80.4519 198° South 433 498 36,000 -60 Level Jacksonville Center
11:49PM 33.2836 -80.4997 200° South 433 498 35,900  Descending Jacksonville Center
11:50PM 33.1697 -80.5450 198° South 433 498 36,000  Climbing Jacksonville Center
11:51PM 33.0558 -80.5903 198° South 433 498 36,000 -60 Level Jacksonville Center
11:52PM 32.9294 -80.6428 199° South 440 506 35,900 -60 Descending Jacksonville Center
11:53PM 32.8175 -80.6853 198° South 440 506 35,900  Level Jacksonville Center
11:54PM 32.7056 -80.7300 199° South 440 506 36,000  Climbing Jacksonville Center
11:55PM 32.5936 -80.7744 198° South 434 499 36,000 -60 Level Jacksonville Center
11:56PM 32.4794 -80.8214 199° South 429 494 35,900  Descending Jacksonville Center
11:57PM 32.3717 -80.8683 200° South 429 494 36,000  Climbing Jacksonville Center
11:58PM 32.2597 -80.9100 197° South 429 494 36,000 -660 Level Jacksonville Center
12:00AM 32.1126 -80.9518 198° South  Level FlightAware Approximate
12:07AM 31.3715 -81.2378 199° South  Level FlightAware Approximate
12:08AM 31.2660 -81.2797 199° South  Level FlightAware Approximate
12:09AM 31.1604 -81.3216 199° South  Level FlightAware Approximate
12:10AM 31.0549 -81.3633 199° South  Level FlightAware Approximate
12:11AM 30.9493 -81.4050 199° South  Level FlightAware Approximate
12:12AM 30.8437 -81.4465 199° South  Level FlightAware Approximate
12:13AM 30.7382 -81.4881 199° South  Level FlightAware Approximate
12:14AM 30.6328 -81.5303 199° South  Level FlightAware Approximate
12:15AM 30.5275 -81.5724 199° South  Level FlightAware Approximate
12:16AM 30.4216 -81.6128 198° South  Level FlightAware Approximate
12:17AM 30.3156 -81.6526 198° South  Level FlightAware Approximate
12:18AM 30.2097 -81.6928 199° South  Level FlightAware Approximate
12:19AM 30.1041 -81.7339 198° South  Level FlightAware Approximate
12:20AM 29.9981 -81.7736 198° South  Level FlightAware Approximate
12:21AM 29.8921 -81.8134 198° South  Level FlightAware Approximate
12:22AM 29.7865 -81.8545 196° South  Level FlightAware Approximate
12:23AM 29.6786 -81.8857 203° Southwest  Level FlightAware Approximate
12:24AM 29.5749 -81.9323 198° South  Level FlightAware Approximate
12:25AM 29.4688 -81.9715 196° South  Level FlightAware Approximate
12:26AM 29.3622 -82.0088 197° South  Level FlightAware Approximate
12:27AM 29.2558 -82.0468 197° South  Level FlightAware Approximate
12:28AM 29.1495 -82.0851 198° South  Level FlightAware Approximate
12:28AM 29.0014 -82.1567 200° South 367 422 17,000  Level Jacksonville Center
12:29AM 29.0433 -82.1237 198° South  Level FlightAware Approximate
12:29AM 28.9161 -82.1906 199° South 367 422 15,900  Level Jacksonville Center
12:30AM 28.9379 -82.1644 204° Southwest  Level FlightAware Approximate
12:30AM 28.8181 -82.2267 198° South 367 422 14,800  Level Jacksonville Center
12:31AM 28.8358 -82.2154 204° Southwest  Level FlightAware Approximate
12:32AM 28.7289 -82.2511 192° South  Level FlightAware Approximate
12:32AM 28.6500 -82.2833 196° South 366 421 13,000  Level Tampa TRACON
12:33AM 28.6208 -82.2820 196° South  Level FlightAware Approximate
12:33AM 28.5667 -82.3167 199° South 357 411 11,500  Level Tampa TRACON
12:34AM 28.5150 -82.3215 200° South  Level FlightAware Approximate
12:34AM 28.4667 -82.3500 196° South 349 402 11,000  Level Tampa TRACON
12:35AM 28.3667 -82.3833 196° South 350 403 11,000  Level Tampa TRACON
12:36AM 28.2833 -82.4167 199° South 347 399 11,000 -360 Level Tampa TRACON
12:37AM 28.2000 -82.4167 180° South 314 361 10,300 -1,080 Descending Tampa TRACON
12:38AM 28.1167 -82.4167 180° South 292 336 8,900 -1,800 Descending Tampa TRACON
12:39AM 28.0333 -82.4167 180° South 276 318 6,700 -2,040 Descending Tampa TRACON
12:40AM 27.9667 -82.4333 192° South 259 298 4,900 -1,620 Descending Tampa TRACON
12:41AM 27.9000 -82.4500 192° South 226 260 3,500 -1,440 Descending Tampa TRACON